sensor_id;sensor_type;location;lat;lon;timestamp;P1;durP1;ratioP1;P2;durP2;ratioP2
78848;SDS011;68197;41.864;21.942;2023-04-24T00:02:08;10.95;;;8.48;;
78848;SDS011;68197;41.864;21.942;2023-04-24T00:04:43;10.82;;;9.30;;
78848;SDS011;68197;41.864;21.942;2023-04-24T00:07:10;12.60;;;9.02;;
78848;SDS011;68197;41.864;21.942;2023-04-24T00:09:38;12.05;;;9.50;;
78848;SDS011;68197;41.864;21.942;2023-04-24T00:12:04;12.50;;;9.23;;
78848;SDS011;68197;41.864;21.942;2023-04-24T00:14:33;16.33;;;12.05;;
78848;SDS011;68197;41.864;21.942;2023-04-24T00:17:00;13.95;;;9.77;;
78848;SDS011;68197;41.864;21.942;2023-04-24T00:19:29;16.75;;;12.27;;
78848;SDS011;68197;41.864;21.942;2023-04-24T00:21:55;17.77;;;10.60;;
78848;SDS011;68197;41.864;21.942;2023-04-24T00:24:22;12.57;;;9.02;;
78848;SDS011;68197;41.864;21.942;2023-04-24T00:26:48;11.38;;;9.25;;
78848;SDS011;68197;41.864;21.942;2023-04-24T00:29:14;12.45;;;9.02;;
78848;SDS011;68197;41.864;21.942;2023-04-24T00:31:43;12.65;;;8.68;;
78848;SDS011;68197;41.864;21.942;2023-04-24T00:34:09;14.88;;;9.90;;
78848;SDS011;68197;41.864;21.942;2023-04-24T00:36:38;16.23;;;10.90;;
78848;SDS011;68197;41.864;21.942;2023-04-24T00:39:05;12.10;;;8.95;;
78848;SDS011;68197;41.864;21.942;2023-04-24T00:41:36;12.50;;;9.40;;
78848;SDS011;68197;41.864;21.942;2023-04-24T00:44:02;12.35;;;9.07;;
78848;SDS011;68197;41.864;21.942;2023-04-24T00:46:28;13.02;;;9.35;;
78848;SDS011;68197;41.864;21.942;2023-04-24T00:48:56;13.70;;;9.25;;
78848;SDS011;68197;41.864;21.942;2023-04-24T00:51:22;13.68;;;9.70;;
78848;SDS011;68197;41.864;21.942;2023-04-24T00:53:49;14.57;;;9.27;;
78848;SDS011;68197;41.864;21.942;2023-04-24T00:56:17;14.13;;;9.77;;
78848;SDS011;68197;41.864;21.942;2023-04-24T00:58:43;13.30;;;9.35;;
78848;SDS011;68197;41.864;21.942;2023-04-24T01:01:12;11.07;;;9.35;;
78848;SDS011;68197;41.864;21.942;2023-04-24T01:03:42;13.65;;;10.02;;
78848;SDS011;68197;41.864;21.942;2023-04-24T01:06:11;12.82;;;9.55;;
78848;SDS011;68197;41.864;21.942;2023-04-24T01:08:37;12.38;;;10.45;;
78848;SDS011;68197;41.864;21.942;2023-04-24T01:11:04;11.30;;;8.98;;
78848;SDS011;68197;41.864;21.942;2023-04-24T01:13:31;13.02;;;9.68;;
78848;SDS011;68197;41.864;21.942;2023-04-24T01:15:57;12.43;;;9.38;;
78848;SDS011;68197;41.864;21.942;2023-04-24T01:18:24;14.30;;;10.45;;
78848;SDS011;68197;41.864;21.942;2023-04-24T01:20:53;13.40;;;10.43;;
78848;SDS011;68197;41.864;21.942;2023-04-24T01:23:25;18.55;;;11.50;;
78848;SDS011;68197;41.864;21.942;2023-04-24T01:25:52;23.05;;;12.27;;
78848;SDS011;68197;41.864;21.942;2023-04-24T01:28:19;12.63;;;10.23;;
78848;SDS011;68197;41.864;21.942;2023-04-24T01:30:45;15.35;;;10.45;;
78848;SDS011;68197;41.864;21.942;2023-04-24T01:33:14;11.38;;;8.82;;
78848;SDS011;68197;41.864;21.942;2023-04-24T01:35:42;12.55;;;8.00;;
78848;SDS011;68197;41.864;21.942;2023-04-24T01:38:11;11.20;;;9.13;;
78848;SDS011;68197;41.864;21.942;2023-04-24T01:40:38;13.32;;;8.65;;
78848;SDS011;68197;41.864;21.942;2023-04-24T01:43:06;10.52;;;8.60;;
78848;SDS011;68197;41.864;21.942;2023-04-24T01:45:33;13.82;;;9.57;;
78848;SDS011;68197;41.864;21.942;2023-04-24T01:48:00;12.75;;;9.35;;
78848;SDS011;68197;41.864;21.942;2023-04-24T01:50:26;12.52;;;8.55;;
78848;SDS011;68197;41.864;21.942;2023-04-24T01:52:58;11.80;;;9.35;;
78848;SDS011;68197;41.864;21.942;2023-04-24T01:55:28;11.85;;;8.43;;
78848;SDS011;68197;41.864;21.942;2023-04-24T01:57:55;13.43;;;9.32;;
78848;SDS011;68197;41.864;21.942;2023-04-24T02:00:22;12.07;;;9.07;;
78848;SDS011;68197;41.864;21.942;2023-04-24T02:02:49;14.63;;;9.27;;
78848;SDS011;68197;41.864;21.942;2023-04-24T02:05:19;11.77;;;9.00;;
78848;SDS011;68197;41.864;21.942;2023-04-24T02:07:45;12.77;;;8.80;;
78848;SDS011;68197;41.864;21.942;2023-04-24T02:10:14;12.13;;;9.07;;
78848;SDS011;68197;41.864;21.942;2023-04-24T02:12:40;13.55;;;10.35;;
78848;SDS011;68197;41.864;21.942;2023-04-24T02:15:07;13.13;;;9.73;;
78848;SDS011;68197;41.864;21.942;2023-04-24T02:17:33;12.35;;;9.50;;
78848;SDS011;68197;41.864;21.942;2023-04-24T02:20:03;13.32;;;9.23;;
78848;SDS011;68197;41.864;21.942;2023-04-24T02:22:29;13.13;;;10.00;;
78848;SDS011;68197;41.864;21.942;2023-04-24T02:24:59;13.43;;;9.40;;
78848;SDS011;68197;41.864;21.942;2023-04-24T02:27:25;14.52;;;10.07;;
78848;SDS011;68197;41.864;21.942;2023-04-24T02:29:54;12.57;;;9.10;;
78848;SDS011;68197;41.864;21.942;2023-04-24T02:32:23;13.15;;;9.43;;
78848;SDS011;68197;41.864;21.942;2023-04-24T02:34:52;13.65;;;10.05;;
78848;SDS011;68197;41.864;21.942;2023-04-24T02:37:21;13.40;;;9.30;;
78848;SDS011;68197;41.864;21.942;2023-04-24T02:39:47;13.20;;;11.40;;
78848;SDS011;68197;41.864;21.942;2023-04-24T02:42:16;14.20;;;11.98;;
78848;SDS011;68197;41.864;21.942;2023-04-24T02:44:42;18.17;;;12.55;;
78848;SDS011;68197;41.864;21.942;2023-04-24T02:47:08;15.23;;;10.02;;
78848;SDS011;68197;41.864;21.942;2023-04-24T02:49:35;11.30;;;9.43;;
78848;SDS011;68197;41.864;21.942;2023-04-24T02:52:01;13.65;;;10.20;;
78848;SDS011;68197;41.864;21.942;2023-04-24T02:54:29;13.52;;;8.77;;
78848;SDS011;68197;41.864;21.942;2023-04-24T02:56:56;18.05;;;14.00;;
78848;SDS011;68197;41.864;21.942;2023-04-24T02:59:22;14.25;;;9.98;;
78848;SDS011;68197;41.864;21.942;2023-04-24T03:01:48;11.50;;;9.57;;
78848;SDS011;68197;41.864;21.942;2023-04-24T03:04:15;14.55;;;9.55;;
78848;SDS011;68197;41.864;21.942;2023-04-24T03:06:41;14.82;;;10.75;;
78848;SDS011;68197;41.864;21.942;2023-04-24T03:09:08;21.75;;;17.77;;
78848;SDS011;68197;41.864;21.942;2023-04-24T03:11:34;16.58;;;11.38;;
78848;SDS011;68197;41.864;21.942;2023-04-24T03:14:00;13.57;;;10.93;;
78848;SDS011;68197;41.864;21.942;2023-04-24T03:16:26;15.82;;;9.40;;
78848;SDS011;68197;41.864;21.942;2023-04-24T03:18:52;13.15;;;10.57;;
78848;SDS011;68197;41.864;21.942;2023-04-24T03:21:19;14.18;;;11.10;;
78848;SDS011;68197;41.864;21.942;2023-04-24T03:23:45;16.13;;;12.82;;
78848;SDS011;68197;41.864;21.942;2023-04-24T03:26:11;12.55;;;9.82;;
78848;SDS011;68197;41.864;21.942;2023-04-24T03:28:38;13.93;;;9.77;;
78848;SDS011;68197;41.864;21.942;2023-04-24T03:31:04;14.13;;;9.18;;
78848;SDS011;68197;41.864;21.942;2023-04-24T03:33:30;14.68;;;10.20;;
78848;SDS011;68197;41.864;21.942;2023-04-24T03:35:56;15.48;;;12.18;;
78848;SDS011;68197;41.864;21.942;2023-04-24T03:38:23;18.95;;;12.85;;
78848;SDS011;68197;41.864;21.942;2023-04-24T03:40:49;20.15;;;14.10;;
78848;SDS011;68197;41.864;21.942;2023-04-24T03:43:15;17.13;;;15.00;;
78848;SDS011;68197;41.864;21.942;2023-04-24T03:45:41;13.70;;;11.63;;
78848;SDS011;68197;41.864;21.942;2023-04-24T03:48:08;14.48;;;11.32;;
78848;SDS011;68197;41.864;21.942;2023-04-24T03:50:36;14.90;;;12.52;;
78848;SDS011;68197;41.864;21.942;2023-04-24T03:53:03;14.20;;;11.25;;
78848;SDS011;68197;41.864;21.942;2023-04-24T03:55:32;16.52;;;12.20;;
78848;SDS011;68197;41.864;21.942;2023-04-24T03:57:58;19.52;;;11.90;;
78848;SDS011;68197;41.864;21.942;2023-04-24T04:00:24;17.20;;;12.15;;
78848;SDS011;68197;41.864;21.942;2023-04-24T04:02:51;20.23;;;13.00;;
78848;SDS011;68197;41.864;21.942;2023-04-24T04:05:17;20.73;;;14.25;;
78848;SDS011;68197;41.864;21.942;2023-04-24T04:07:43;20.42;;;13.57;;
78848;SDS011;68197;41.864;21.942;2023-04-24T04:10:10;21.15;;;13.25;;
78848;SDS011;68197;41.864;21.942;2023-04-24T04:12:36;20.63;;;14.57;;
78848;SDS011;68197;41.864;21.942;2023-04-24T04:15:02;22.73;;;15.90;;
78848;SDS011;68197;41.864;21.942;2023-04-24T04:17:36;16.42;;;12.07;;
78848;SDS011;68197;41.864;21.942;2023-04-24T04:20:03;15.15;;;10.82;;
78848;SDS011;68197;41.864;21.942;2023-04-24T04:22:34;13.73;;;8.80;;
78848;SDS011;68197;41.864;21.942;2023-04-24T04:25:00;13.73;;;9.50;;
78848;SDS011;68197;41.864;21.942;2023-04-24T04:27:26;23.17;;;11.18;;
78848;SDS011;68197;41.864;21.942;2023-04-24T04:29:54;20.63;;;13.43;;
78848;SDS011;68197;41.864;21.942;2023-04-24T04:32:21;16.50;;;9.73;;
78848;SDS011;68197;41.864;21.942;2023-04-24T04:34:47;13.57;;;9.10;;
78848;SDS011;68197;41.864;21.942;2023-04-24T04:37:14;14.52;;;8.25;;
78848;SDS011;68197;41.864;21.942;2023-04-24T04:39:43;16.80;;;10.40;;
78848;SDS011;68197;41.864;21.942;2023-04-24T04:42:10;17.30;;;11.80;;
78848;SDS011;68197;41.864;21.942;2023-04-24T04:44:38;18.67;;;13.75;;
78848;SDS011;68197;41.864;21.942;2023-04-24T04:47:05;16.77;;;12.32;;
78848;SDS011;68197;41.864;21.942;2023-04-24T04:49:32;16.98;;;12.35;;
78848;SDS011;68197;41.864;21.942;2023-04-24T04:52:02;17.33;;;13.10;;
78848;SDS011;68197;41.864;21.942;2023-04-24T04:54:29;12.88;;;10.18;;
78848;SDS011;68197;41.864;21.942;2023-04-24T04:56:55;22.77;;;16.13;;
78848;SDS011;68197;41.864;21.942;2023-04-24T04:59:22;15.13;;;10.82;;
78848;SDS011;68197;41.864;21.942;2023-04-24T05:01:48;15.27;;;10.50;;
78848;SDS011;68197;41.864;21.942;2023-04-24T05:04:17;13.35;;;8.65;;
78848;SDS011;68197;41.864;21.942;2023-04-24T05:06:43;13.35;;;9.02;;
78848;SDS011;68197;41.864;21.942;2023-04-24T05:09:09;11.02;;;8.98;;
78848;SDS011;68197;41.864;21.942;2023-04-24T05:11:36;13.18;;;9.75;;
78848;SDS011;68197;41.864;21.942;2023-04-24T05:14:02;14.50;;;10.80;;
78848;SDS011;68197;41.864;21.942;2023-04-24T05:16:28;15.80;;;9.80;;
78848;SDS011;68197;41.864;21.942;2023-04-24T05:18:58;13.88;;;9.93;;
78848;SDS011;68197;41.864;21.942;2023-04-24T05:21:24;14.27;;;10.90;;
78848;SDS011;68197;41.864;21.942;2023-04-24T05:23:54;13.77;;;9.73;;
78848;SDS011;68197;41.864;21.942;2023-04-24T05:26:23;16.10;;;10.18;;
78848;SDS011;68197;41.864;21.942;2023-04-24T05:28:49;18.67;;;9.63;;
78848;SDS011;68197;41.864;21.942;2023-04-24T05:31:15;13.75;;;11.52;;
78848;SDS011;68197;41.864;21.942;2023-04-24T05:33:42;14.15;;;9.98;;
78848;SDS011;68197;41.864;21.942;2023-04-24T05:36:09;16.17;;;11.23;;
78848;SDS011;68197;41.864;21.942;2023-04-24T05:38:35;11.57;;;10.02;;
78848;SDS011;68197;41.864;21.942;2023-04-24T05:44:05;14.65;;;10.27;;
78848;SDS011;68197;41.864;21.942;2023-04-24T05:46:31;14.60;;;9.10;;
78848;SDS011;68197;41.864;21.942;2023-04-24T05:48:57;15.52;;;10.50;;
78848;SDS011;68197;41.864;21.942;2023-04-24T05:51:23;14.50;;;10.25;;
78848;SDS011;68197;41.864;21.942;2023-04-24T05:53:50;13.90;;;9.60;;
78848;SDS011;68197;41.864;21.942;2023-04-24T05:56:17;13.73;;;10.15;;
78848;SDS011;68197;41.864;21.942;2023-04-24T05:58:45;12.25;;;9.55;;
78848;SDS011;68197;41.864;21.942;2023-04-24T06:01:11;12.50;;;9.38;;
78848;SDS011;68197;41.864;21.942;2023-04-24T06:03:40;14.55;;;8.85;;
78848;SDS011;68197;41.864;21.942;2023-04-24T06:06:07;13.70;;;9.32;;
78848;SDS011;68197;41.864;21.942;2023-04-24T06:08:34;18.88;;;12.65;;
78848;SDS011;68197;41.864;21.942;2023-04-24T06:11:00;13.65;;;9.80;;
78848;SDS011;68197;41.864;21.942;2023-04-24T06:13:26;15.50;;;10.27;;
78848;SDS011;68197;41.864;21.942;2023-04-24T06:15:52;12.52;;;10.00;;
78848;SDS011;68197;41.864;21.942;2023-04-24T06:18:19;13.43;;;10.93;;
78848;SDS011;68197;41.864;21.942;2023-04-24T06:20:45;15.20;;;10.13;;
78848;SDS011;68197;41.864;21.942;2023-04-24T06:23:11;15.30;;;10.20;;
78848;SDS011;68197;41.864;21.942;2023-04-24T06:25:37;15.60;;;9.02;;
78848;SDS011;68197;41.864;21.942;2023-04-24T06:28:04;12.63;;;9.48;;
78848;SDS011;68197;41.864;21.942;2023-04-24T06:30:30;12.07;;;10.27;;
78848;SDS011;68197;41.864;21.942;2023-04-24T06:32:56;24.92;;;19.77;;
78848;SDS011;68197;41.864;21.942;2023-04-24T06:35:23;11.30;;;8.77;;
78848;SDS011;68197;41.864;21.942;2023-04-24T06:37:49;19.48;;;13.60;;
78848;SDS011;68197;41.864;21.942;2023-04-24T06:40:15;10.60;;;6.57;;
78848;SDS011;68197;41.864;21.942;2023-04-24T06:42:43;18.83;;;13.57;;
78848;SDS011;68197;41.864;21.942;2023-04-24T06:45:09;12.88;;;9.77;;
78848;SDS011;68197;41.864;21.942;2023-04-24T06:47:36;10.35;;;9.18;;
78848;SDS011;68197;41.864;21.942;2023-04-24T06:50:03;10.82;;;8.35;;
78848;SDS011;68197;41.864;21.942;2023-04-24T06:52:29;10.73;;;8.57;;
78848;SDS011;68197;41.864;21.942;2023-04-24T06:55:04;12.73;;;9.52;;
78848;SDS011;68197;41.864;21.942;2023-04-24T06:57:31;9.15;;;8.10;;
78848;SDS011;68197;41.864;21.942;2023-04-24T06:59:57;9.18;;;7.18;;
78848;SDS011;68197;41.864;21.942;2023-04-24T07:02:24;10.63;;;8.18;;
78848;SDS011;68197;41.864;21.942;2023-04-24T07:04:50;10.93;;;8.15;;
78848;SDS011;68197;41.864;21.942;2023-04-24T07:07:16;17.42;;;8.77;;
78848;SDS011;68197;41.864;21.942;2023-04-24T07:09:42;10.82;;;8.15;;
78848;SDS011;68197;41.864;21.942;2023-04-24T07:14:36;9.85;;;7.93;;
78848;SDS011;68197;41.864;21.942;2023-04-24T07:17:03;8.52;;;6.57;;
78848;SDS011;68197;41.864;21.942;2023-04-24T07:19:30;12.73;;;6.93;;
78848;SDS011;68197;41.864;21.942;2023-04-24T07:21:56;9.65;;;7.35;;
78848;SDS011;68197;41.864;21.942;2023-04-24T07:24:24;8.30;;;6.78;;
78848;SDS011;68197;41.864;21.942;2023-04-24T07:26:50;10.43;;;6.82;;
78848;SDS011;68197;41.864;21.942;2023-04-24T07:29:17;8.43;;;6.47;;
78848;SDS011;68197;41.864;21.942;2023-04-24T07:31:43;7.30;;;6.05;;
78848;SDS011;68197;41.864;21.942;2023-04-24T07:34:10;6.63;;;5.97;;
78848;SDS011;68197;41.864;21.942;2023-04-24T07:36:36;8.77;;;6.60;;
78848;SDS011;68197;41.864;21.942;2023-04-24T07:39:05;6.95;;;6.25;;
78848;SDS011;68197;41.864;21.942;2023-04-24T07:41:31;6.90;;;6.20;;
78848;SDS011;68197;41.864;21.942;2023-04-24T07:43:58;9.20;;;6.68;;
78848;SDS011;68197;41.864;21.942;2023-04-24T07:46:24;9.05;;;7.07;;
78848;SDS011;68197;41.864;21.942;2023-04-24T07:48:51;10.10;;;7.07;;
78848;SDS011;68197;41.864;21.942;2023-04-24T07:51:17;8.70;;;7.40;;
78848;SDS011;68197;41.864;21.942;2023-04-24T07:53:43;13.38;;;9.90;;
78848;SDS011;68197;41.864;21.942;2023-04-24T07:56:09;9.20;;;6.72;;
78848;SDS011;68197;41.864;21.942;2023-04-24T07:58:36;9.18;;;7.20;;
78848;SDS011;68197;41.864;21.942;2023-04-24T08:01:02;8.93;;;6.43;;
78848;SDS011;68197;41.864;21.942;2023-04-24T08:03:28;15.02;;;8.95;;
78848;SDS011;68197;41.864;21.942;2023-04-24T08:05:55;8.82;;;6.00;;
78848;SDS011;68197;41.864;21.942;2023-04-24T08:08:22;9.40;;;6.95;;
78848;SDS011;68197;41.864;21.942;2023-04-24T08:10:48;10.68;;;6.72;;
78848;SDS011;68197;41.864;21.942;2023-04-24T08:13:15;7.95;;;6.45;;
78848;SDS011;68197;41.864;21.942;2023-04-24T08:15:41;8.95;;;6.97;;
78848;SDS011;68197;41.864;21.942;2023-04-24T08:18:07;7.80;;;6.70;;
78848;SDS011;68197;41.864;21.942;2023-04-24T08:20:34;9.55;;;6.68;;
78848;SDS011;68197;41.864;21.942;2023-04-24T08:23:01;8.18;;;6.35;;
78848;SDS011;68197;41.864;21.942;2023-04-24T08:25:27;9.18;;;7.95;;
78848;SDS011;68197;41.864;21.942;2023-04-24T08:27:53;10.88;;;8.25;;
78848;SDS011;68197;41.864;21.942;2023-04-24T08:30:20;8.85;;;6.00;;
78848;SDS011;68197;41.864;21.942;2023-04-24T08:32:46;8.38;;;6.30;;
78848;SDS011;68197;41.864;21.942;2023-04-24T08:35:12;7.65;;;5.93;;
78848;SDS011;68197;41.864;21.942;2023-04-24T08:37:38;8.15;;;6.80;;
78848;SDS011;68197;41.864;21.942;2023-04-24T08:40:05;6.97;;;6.20;;
78848;SDS011;68197;41.864;21.942;2023-04-24T08:42:32;8.10;;;6.25;;
78848;SDS011;68197;41.864;21.942;2023-04-24T08:44:59;7.95;;;5.47;;
78848;SDS011;68197;41.864;21.942;2023-04-24T08:47:25;7.70;;;6.10;;
78848;SDS011;68197;41.864;21.942;2023-04-24T08:49:53;7.95;;;6.63;;
78848;SDS011;68197;41.864;21.942;2023-04-24T08:52:20;9.13;;;6.45;;
78848;SDS011;68197;41.864;21.942;2023-04-24T08:54:47;6.78;;;5.85;;
78848;SDS011;68197;41.864;21.942;2023-04-24T08:57:14;12.15;;;9.35;;
78848;SDS011;68197;41.864;21.942;2023-04-24T08:59:40;7.65;;;5.53;;
78848;SDS011;68197;41.864;21.942;2023-04-24T09:02:08;6.63;;;5.50;;
78848;SDS011;68197;41.864;21.942;2023-04-24T09:04:38;8.50;;;6.88;;
78848;SDS011;68197;41.864;21.942;2023-04-24T09:07:06;8.82;;;6.50;;
78848;SDS011;68197;41.864;21.942;2023-04-24T09:09:32;8.00;;;5.93;;
78848;SDS011;68197;41.864;21.942;2023-04-24T09:11:59;8.13;;;5.75;;
78848;SDS011;68197;41.864;21.942;2023-04-24T09:14:25;12.43;;;7.53;;
78848;SDS011;68197;41.864;21.942;2023-04-24T09:16:52;7.13;;;6.00;;
78848;SDS011;68197;41.864;21.942;2023-04-24T09:19:19;6.20;;;5.20;;
78848;SDS011;68197;41.864;21.942;2023-04-24T09:21:46;5.85;;;5.10;;
78848;SDS011;68197;41.864;21.942;2023-04-24T09:24:19;7.30;;;5.30;;
78848;SDS011;68197;41.864;21.942;2023-04-24T09:26:47;9.27;;;5.90;;
78848;SDS011;68197;41.864;21.942;2023-04-24T09:29:17;5.95;;;5.28;;
78848;SDS011;68197;41.864;21.942;2023-04-24T09:31:44;8.25;;;5.90;;
78848;SDS011;68197;41.864;21.942;2023-04-24T09:34:12;7.55;;;5.35;;
78848;SDS011;68197;41.864;21.942;2023-04-24T09:36:40;6.88;;;5.65;;
78848;SDS011;68197;41.864;21.942;2023-04-24T09:41:33;7.72;;;5.20;;
78848;SDS011;68197;41.864;21.942;2023-04-24T09:44:15;7.72;;;5.25;;
78848;SDS011;68197;41.864;21.942;2023-04-24T09:46:42;9.57;;;6.05;;
78848;SDS011;68197;41.864;21.942;2023-04-24T09:49:12;9.20;;;5.00;;
78848;SDS011;68197;41.864;21.942;2023-04-24T09:51:40;6.25;;;5.35;;
78848;SDS011;68197;41.864;21.942;2023-04-24T09:54:16;5.78;;;5.28;;
78848;SDS011;68197;41.864;21.942;2023-04-24T09:56:44;9.63;;;6.28;;
78848;SDS011;68197;41.864;21.942;2023-04-24T09:59:11;6.20;;;5.53;;
78848;SDS011;68197;41.864;21.942;2023-04-24T10:01:38;8.23;;;5.55;;
78848;SDS011;68197;41.864;21.942;2023-04-24T10:04:14;10.43;;;7.50;;
78848;SDS011;68197;41.864;21.942;2023-04-24T10:06:41;6.28;;;5.00;;
78848;SDS011;68197;41.864;21.942;2023-04-24T10:09:08;9.90;;;8.65;;
78848;SDS011;68197;41.864;21.942;2023-04-24T10:11:37;9.00;;;5.65;;
78848;SDS011;68197;41.864;21.942;2023-04-24T10:14:03;6.30;;;4.65;;
78848;SDS011;68197;41.864;21.942;2023-04-24T10:16:29;6.72;;;4.88;;
78848;SDS011;68197;41.864;21.942;2023-04-24T10:18:55;6.57;;;5.15;;
78848;SDS011;68197;41.864;21.942;2023-04-24T10:21:25;9.95;;;5.40;;
78848;SDS011;68197;41.864;21.942;2023-04-24T10:23:52;7.55;;;5.40;;
78848;SDS011;68197;41.864;21.942;2023-04-24T10:26:20;6.32;;;4.45;;
78848;SDS011;68197;41.864;21.942;2023-04-24T10:28:50;5.35;;;4.22;;
78848;SDS011;68197;41.864;21.942;2023-04-24T10:31:16;5.70;;;4.30;;
78848;SDS011;68197;41.864;21.942;2023-04-24T10:33:43;6.00;;;4.15;;
78848;SDS011;68197;41.864;21.942;2023-04-24T10:36:10;5.38;;;4.63;;
78848;SDS011;68197;41.864;21.942;2023-04-24T10:38:37;6.82;;;4.63;;
78848;SDS011;68197;41.864;21.942;2023-04-24T10:41:07;4.25;;;3.72;;
78848;SDS011;68197;41.864;21.942;2023-04-24T10:46:00;6.40;;;4.30;;
78848;SDS011;68197;41.864;21.942;2023-04-24T10:48:27;7.03;;;4.35;;
78848;SDS011;68197;41.864;21.942;2023-04-24T10:50:53;5.70;;;4.22;;
78848;SDS011;68197;41.864;21.942;2023-04-24T10:53:24;5.90;;;4.15;;
78848;SDS011;68197;41.864;21.942;2023-04-24T10:56:15;6.95;;;4.28;;
78848;SDS011;68197;41.864;21.942;2023-04-24T10:58:56;6.60;;;4.32;;
78848;SDS011;68197;41.864;21.942;2023-04-24T11:01:30;6.05;;;4.38;;
78848;SDS011;68197;41.864;21.942;2023-04-24T11:04:00;5.10;;;4.60;;
78848;SDS011;68197;41.864;21.942;2023-04-24T11:06:34;5.63;;;4.22;;
78848;SDS011;68197;41.864;21.942;2023-04-24T11:09:07;6.40;;;4.50;;
78848;SDS011;68197;41.864;21.942;2023-04-24T11:14:01;5.65;;;4.22;;
78848;SDS011;68197;41.864;21.942;2023-04-24T11:16:32;12.15;;;10.90;;
78848;SDS011;68197;41.864;21.942;2023-04-24T11:19:08;6.90;;;5.35;;
78848;SDS011;68197;41.864;21.942;2023-04-24T11:21:42;5.68;;;4.00;;
78848;SDS011;68197;41.864;21.942;2023-04-24T11:32:16;5.82;;;4.20;;
78848;SDS011;68197;41.864;21.942;2023-04-24T11:34:47;6.68;;;4.15;;
78848;SDS011;68197;41.864;21.942;2023-04-24T11:37:13;4.80;;;4.30;;
78848;SDS011;68197;41.864;21.942;2023-04-24T11:39:40;6.20;;;4.53;;
78848;SDS011;68197;41.864;21.942;2023-04-24T11:42:06;6.30;;;4.18;;
78848;SDS011;68197;41.864;21.942;2023-04-24T11:44:35;6.57;;;4.40;;
78848;SDS011;68197;41.864;21.942;2023-04-24T11:47:05;6.90;;;4.30;;
78848;SDS011;68197;41.864;21.942;2023-04-24T11:49:37;25.40;;;21.10;;
78848;SDS011;68197;41.864;21.942;2023-04-24T11:52:04;28.50;;;25.85;;
78848;SDS011;68197;41.864;21.942;2023-04-24T11:54:31;6.50;;;4.15;;
78848;SDS011;68197;41.864;21.942;2023-04-24T11:56:57;5.97;;;4.25;;
78848;SDS011;68197;41.864;21.942;2023-04-24T11:59:23;4.75;;;4.03;;
78848;SDS011;68197;41.864;21.942;2023-04-24T12:01:50;7.25;;;4.25;;
78848;SDS011;68197;41.864;21.942;2023-04-24T12:04:16;6.57;;;4.03;;
78848;SDS011;68197;41.864;21.942;2023-04-24T12:07:01;4.65;;;3.95;;
78848;SDS011;68197;41.864;21.942;2023-04-24T12:09:28;7.47;;;5.10;;
78848;SDS011;68197;41.864;21.942;2023-04-24T12:11:55;5.30;;;4.15;;
78848;SDS011;68197;41.864;21.942;2023-04-24T12:14:22;4.68;;;4.25;;
78848;SDS011;68197;41.864;21.942;2023-04-24T12:16:49;7.07;;;4.50;;
78848;SDS011;68197;41.864;21.942;2023-04-24T12:19:22;6.45;;;3.58;;
78848;SDS011;68197;41.864;21.942;2023-04-24T12:24:27;7.20;;;4.57;;
78848;SDS011;68197;41.864;21.942;2023-04-24T12:26:53;4.97;;;4.32;;
78848;SDS011;68197;41.864;21.942;2023-04-24T12:29:20;6.55;;;4.05;;
78848;SDS011;68197;41.864;21.942;2023-04-24T12:31:46;6.43;;;4.22;;
78848;SDS011;68197;41.864;21.942;2023-04-24T12:34:19;7.72;;;3.67;;
78848;SDS011;68197;41.864;21.942;2023-04-24T12:36:45;4.13;;;3.72;;
78848;SDS011;68197;41.864;21.942;2023-04-24T12:39:15;7.00;;;3.83;;
78848;SDS011;68197;41.864;21.942;2023-04-24T12:41:57;6.75;;;4.43;;
78848;SDS011;68197;41.864;21.942;2023-04-24T12:44:30;6.65;;;4.22;;
78848;SDS011;68197;41.864;21.942;2023-04-24T12:46:57;9.27;;;4.47;;
78848;SDS011;68197;41.864;21.942;2023-04-24T12:49:23;5.75;;;5.00;;
78848;SDS011;68197;41.864;21.942;2023-04-24T12:51:49;7.10;;;4.40;;
78848;SDS011;68197;41.864;21.942;2023-04-24T12:54:15;8.35;;;4.90;;
78848;SDS011;68197;41.864;21.942;2023-04-24T12:56:41;10.32;;;5.32;;
78848;SDS011;68197;41.864;21.942;2023-04-24T12:59:07;38.20;;;31.23;;
78848;SDS011;68197;41.864;21.942;2023-04-24T13:01:33;30.52;;;27.25;;
78848;SDS011;68197;41.864;21.942;2023-04-24T13:03:59;5.13;;;3.22;;
78848;SDS011;68197;41.864;21.942;2023-04-24T13:06:26;6.10;;;4.28;;
78848;SDS011;68197;41.864;21.942;2023-04-24T13:08:52;5.78;;;3.75;;
78848;SDS011;68197;41.864;21.942;2023-04-24T13:11:20;4.75;;;4.22;;
78848;SDS011;68197;41.864;21.942;2023-04-24T13:13:47;5.22;;;4.57;;
78848;SDS011;68197;41.864;21.942;2023-04-24T13:16:13;5.63;;;4.00;;
78848;SDS011;68197;41.864;21.942;2023-04-24T13:18:39;6.95;;;4.63;;
78848;SDS011;68197;41.864;21.942;2023-04-24T13:21:05;6.45;;;3.92;;
78848;SDS011;68197;41.864;21.942;2023-04-24T13:23:31;6.43;;;4.07;;
78848;SDS011;68197;41.864;21.942;2023-04-24T13:25:58;5.82;;;4.85;;
78848;SDS011;68197;41.864;21.942;2023-04-24T13:28:24;6.40;;;5.28;;
78848;SDS011;68197;41.864;21.942;2023-04-24T13:30:51;5.78;;;4.13;;
78848;SDS011;68197;41.864;21.942;2023-04-24T13:33:17;4.57;;;4.03;;
78848;SDS011;68197;41.864;21.942;2023-04-24T13:35:43;6.15;;;5.38;;
78848;SDS011;68197;41.864;21.942;2023-04-24T13:38:09;7.05;;;4.50;;
78848;SDS011;68197;41.864;21.942;2023-04-24T13:40:36;6.15;;;4.97;;
78848;SDS011;68197;41.864;21.942;2023-04-24T13:43:03;8.52;;;4.25;;
78848;SDS011;68197;41.864;21.942;2023-04-24T13:45:29;8.55;;;6.82;;
78848;SDS011;68197;41.864;21.942;2023-04-24T13:47:55;6.03;;;5.43;;
78848;SDS011;68197;41.864;21.942;2023-04-24T13:50:22;7.15;;;5.35;;
78848;SDS011;68197;41.864;21.942;2023-04-24T13:52:48;6.40;;;5.70;;
78848;SDS011;68197;41.864;21.942;2023-04-24T13:55:14;8.98;;;5.50;;
78848;SDS011;68197;41.864;21.942;2023-04-24T13:57:40;9.02;;;6.65;;
78848;SDS011;68197;41.864;21.942;2023-04-24T14:00:06;11.52;;;8.77;;
78848;SDS011;68197;41.864;21.942;2023-04-24T14:02:35;8.30;;;6.22;;
78848;SDS011;68197;41.864;21.942;2023-04-24T14:05:02;8.38;;;5.68;;
78848;SDS011;68197;41.864;21.942;2023-04-24T14:07:31;7.38;;;6.30;;
78848;SDS011;68197;41.864;21.942;2023-04-24T14:09:57;7.57;;;6.60;;
78848;SDS011;68197;41.864;21.942;2023-04-24T14:12:23;8.55;;;6.57;;
78848;SDS011;68197;41.864;21.942;2023-04-24T14:14:50;7.70;;;5.60;;
78848;SDS011;68197;41.864;21.942;2023-04-24T14:17:17;8.18;;;5.68;;
78848;SDS011;68197;41.864;21.942;2023-04-24T14:19:43;7.03;;;5.78;;
78848;SDS011;68197;41.864;21.942;2023-04-24T14:22:09;13.30;;;8.43;;
78848;SDS011;68197;41.864;21.942;2023-04-24T14:24:35;11.32;;;7.93;;
78848;SDS011;68197;41.864;21.942;2023-04-24T14:27:01;7.53;;;6.15;;
78848;SDS011;68197;41.864;21.942;2023-04-24T14:29:28;7.35;;;6.53;;
78848;SDS011;68197;41.864;21.942;2023-04-24T14:31:54;7.68;;;6.57;;
78848;SDS011;68197;41.864;21.942;2023-04-24T14:34:20;6.75;;;5.55;;
78848;SDS011;68197;41.864;21.942;2023-04-24T14:36:46;7.65;;;6.05;;
78848;SDS011;68197;41.864;21.942;2023-04-24T14:39:12;8.55;;;6.68;;
78848;SDS011;68197;41.864;21.942;2023-04-24T14:41:38;7.13;;;6.00;;
78848;SDS011;68197;41.864;21.942;2023-04-24T14:44:05;6.10;;;5.05;;
78848;SDS011;68197;41.864;21.942;2023-04-24T14:46:32;10.40;;;8.45;;
78848;SDS011;68197;41.864;21.942;2023-04-24T14:48:58;21.15;;;18.90;;